Time;durP1;ratioP1;P1;durP2;ratioP2;P2;SDS_P1;SDS_P2;PMS_P1;PMS_P2;Temp;Humidity;BMP_temperature;BMP_pressure;BME280_temperature;BME280_humidity;BME280_pressure;Samples;Min_cycle;Max_cycle;Signal;HPM_P1;HPM_P2
2021/10/13 00:01:10;;;;;;;8.97;7.43;;;10.40;99.90;;;10.10;94.55;98466.59;5053848;28;20636;-86
2021/10/13 00:03:39;;;;;;;12.47;8.60;;;10.40;99.90;;;10.08;94.43;98471.06;5058312;28;20662;-85
2021/10/13 00:06:08;;;;;;;10.93;8.47;;;10.40;99.90;;;10.06;94.44;98464.28;5053711;28;20639;-85
2021/10/13 00:08:36;;;;;;;11.03;8.63;;;10.40;99.90;;;10.04;93.83;98461.75;5041249;28;21027;-85
2021/10/13 00:11:06;;;;;;;11.77;8.40;;;10.30;99.90;;;10.05;94.91;98460.00;5058227;28;20634;-86
2021/10/13 00:13:35;;;;;;;16.83;8.73;;;10.30;99.90;;;10.07;94.77;98464.19;5058667;28;20624;-86
2021/10/13 00:16:05;;;;;;;8.43;6.60;;;10.30;99.90;;;9.99;94.26;98463.78;5052769;28;20723;-86
2021/10/13 00:18:34;;;;;;;9.53;6.20;;;10.30;99.90;;;9.96;94.06;98465.75;5054152;28;20636;-86
2021/10/13 00:21:02;;;;;;;8.30;6.20;;;10.20;99.90;;;9.97;94.41;98470.03;5054750;28;20632;-85
2021/10/13 00:23:31;;;;;;;8.20;5.90;;;10.20;99.90;;;9.94;94.42;98465.84;5056257;28;21208;-86
2021/10/13 00:26:00;;;;;;;10.93;6.70;;;10.20;99.90;;;9.92;94.63;98472.88;5054636;28;21079;-86
2021/10/13 00:28:30;;;;;;;21.73;7.63;;;10.20;99.90;;;9.86;94.02;98475.00;5054381;28;20625;-85
2021/10/13 00:30:58;;;;;;;13.47;6.70;;;10.20;99.90;;;9.81;94.09;98476.22;5062302;28;20621;-85
2021/10/13 00:33:27;;;;;;;9.77;6.70;;;10.10;99.90;;;9.79;94.39;98478.91;5058359;28;20646;-85
2021/10/13 00:35:55;;;;;;;8.80;7.23;;;10.10;99.90;;;9.81;94.22;98481.44;5040306;28;20641;-85
2021/10/13 00:38:24;;;;;;;11.03;7.77;;;10.10;99.90;;;9.78;94.83;98482.44;5050925;28;20644;-86
2021/10/13 00:40:53;;;;;;;8.70;6.70;;;10.10;99.90;;;9.80;94.49;98487.56;5055535;28;20624;-85
2021/10/13 00:43:21;;;;;;;12.33;7.37;;;10.10;99.90;;;9.79;94.92;98491.94;5054791;28;21023;-85
2021/10/13 00:45:52;;;;;;;12.70;7.97;;;10.10;99.90;;;9.79;95.01;98489.34;5069041;28;20640;-85
2021/10/13 00:48:20;;;;;;;8.17;6.90;;;10.10;99.90;;;9.79;94.70;98494.53;5057455;28;20632;-85
2021/10/13 00:50:50;;;;;;;9.57;6.83;;;10.10;99.90;;;9.81;94.65;98491.84;5052465;28;21014;-85
2021/10/13 00:53:19;;;;;;;13.40;8.60;;;10.10;99.90;;;9.81;94.88;98491.84;5052417;28;20675;-85
2021/10/13 00:55:47;;;;;;;11.50;9.07;;;10.10;99.90;;;9.82;95.11;98488.28;5057344;28;20641;-86
2021/10/13 00:58:16;;;;;;;11.70;8.60;;;10.10;99.90;;;9.83;94.60;98496.00;5042219;28;20683;-86
2021/10/13 01:00:48;;;;;;;11.90;8.33;;;10.10;99.90;;;9.79;94.74;98494.53;5054502;28;20625;-85
2021/10/13 01:03:29;;;;;;;10.90;8.47;;;10.10;99.90;;;9.73;94.87;98499.28;5057154;28;21199;-85
2021/10/13 01:06:15;;;;;;;11.00;8.10;;;10.00;99.90;;;9.66;95.39;98500.56;5051305;28;20625;-86
2021/10/13 01:08:58;;;;;;;10.03;7.80;;;9.90;99.90;;;9.56;94.69;98520.22;5050597;28;20649;-85
2021/10/13 01:11:40;;;;;;;27.00;16.93;;;9.80;99.90;;;9.47;94.61;98520.75;5050099;28;20629;-85
2021/10/13 01:14:30;;;;;;;21.40;13.87;;;9.80;99.90;;;9.44;95.05;98519.19;5052736;28;20631;-85
2021/10/13 01:17:11;;;;;;;18.73;11.30;;;9.70;99.90;;;9.42;95.05;98517.56;5056279;28;20621;-85
2021/10/13 01:20:00;;;;;;;22.23;8.43;;;9.70;99.90;;;9.40;94.88;98519.44;5039755;28;20710;-86
2021/10/13 01:23:06;;;;;;;14.10;8.90;;;9.70;99.90;;;9.39;95.05;98520.34;5037302;28;20636;-86
2021/10/13 01:25:48;;;;;;;10.57;7.50;;;9.70;99.90;;;9.39;95.24;98521.19;4982523;28;20655;-85
2021/10/13 01:28:21;;;;;;;10.37;7.50;;;9.70;99.90;;;9.41;95.53;98523.69;5054008;28;20646;-85
2021/10/13 01:30:56;;;;;;;11.67;7.70;;;9.70;99.90;;;9.44;95.75;98531.34;5053466;28;20651;-85
2021/10/13 01:33:29;;;;;;;10.40;6.77;;;9.70;99.90;;;9.45;95.73;98533.03;5054516;28;20636;-86
2021/10/13 01:36:04;;;;;;;15.40;8.00;;;9.70;99.90;;;9.46;96.59;98532.09;5047976;28;20628;-85
2021/10/13 01:38:41;;;;;;;16.37;7.73;;;9.70;99.90;;;9.46;95.92;98532.09;5051994;28;20746;-85
2021/10/13 01:41:12;;;;;;;21.10;7.40;;;9.80;99.90;;;9.43;95.69;98547.91;5059618;28;20997;-85
2021/10/13 01:43:47;;;;;;;19.40;7.37;;;9.80;99.90;;;9.42;96.00;98546.22;5062266;28;20632;-86
2021/10/13 01:46:17;;;;;;;17.13;7.60;;;9.70;99.90;;;9.40;96.10;98554.09;5053876;28;20622;-85
2021/10/13 01:48:46;;;;;;;32.40;7.90;;;9.70;99.90;;;9.38;95.33;98552.50;5050926;28;21200;-85
2021/10/13 01:51:16;;;;;;;18.00;6.50;;;9.70;99.90;;;9.38;95.20;98560.31;5056264;28;21017;-85
2021/10/13 01:53:48;;;;;;;26.17;8.00;;;9.70;99.90;;;9.35;95.63;98563.13;5062131;28;20655;-86
2021/10/13 01:56:17;;;;;;;16.83;6.60;;;9.70;99.90;;;9.34;95.59;98561.44;5051778;28;20635;-85
2021/10/13 01:58:50;;;;;;;9.20;5.87;;;9.70;99.90;;;9.31;95.89;98577.22;5049661;28;20659;-85
2021/10/13 02:01:24;;;;;;;11.13;5.00;;;9.60;99.90;;;9.28;95.49;98574.78;5057075;28;20635;-85
2021/10/13 02:03:53;;;;;;;45.73;8.37;;;9.60;99.90;;;9.27;94.87;98580.06;5055289;28;20636;-85
2021/10/13 02:06:43;;;;;;;17.60;5.50;;;9.60;99.90;;;9.24;94.68;98582.84;5049904;28;20650;-85
2021/10/13 02:09:12;;;;;;;12.53;5.00;;;9.60;99.90;;;9.20;94.90;98582.19;5056996;28;20663;-85
2021/10/13 02:11:42;;;;;;;7.57;4.10;;;9.50;99.90;;;9.16;94.66;98582.44;5060872;28;21150;-85
2021/10/13 02:14:15;;;;;;;5.27;3.93;;;9.50;99.90;;;9.15;94.88;98581.56;5058932;28;20752;-85
2021/10/13 02:16:49;;;;;;;5.80;4.73;;;9.40;99.90;;;9.16;95.37;98585.03;5039982;28;20628;-86
2021/10/13 02:19:21;;;;;;;6.63;4.37;;;9.50;99.90;;;9.15;95.45;98588.53;5053896;28;20635;-85
2021/10/13 02:21:54;;;;;;;5.43;4.07;;;9.50;99.90;;;9.19;94.52;98590.06;5053152;28;20650;-85
2021/10/13 02:24:28;;;;;;;6.33;4.50;;;9.50;99.90;;;9.17;94.53;98587.56;5054441;28;20722;-83
2021/10/13 02:27:05;;;;;;;7.40;4.93;;;9.50;99.90;;;9.17;94.73;98597.09;5048513;28;20640;-84
2021/10/13 02:29:37;;;;;;;6.00;4.60;;;9.50;99.90;;;9.14;94.60;98598.13;5052983;28;20642;-83
2021/10/13 02:32:08;;;;;;;9.20;5.40;;;9.40;99.90;;;9.15;95.23;98594.59;5058121;28;20720;-83
2021/10/13 02:34:39;;;;;;;6.10;4.90;;;9.40;99.90;;;9.21;94.96;98603.81;5050419;28;20731;-83
2021/10/13 02:37:08;;;;;;;6.40;4.87;;;9.50;99.90;;;9.22;95.47;98611.56;5053383;28;20690;-83
2021/10/13 02:39:37;;;;;;;6.63;5.30;;;9.50;99.90;;;9.24;95.45;98625.31;5055995;28;20639;-83
2021/10/13 02:42:09;;;;;;;7.63;5.00;;;9.50;99.90;;;9.24;94.84;98619.28;5052245;28;20707;-83
2021/10/13 02:44:39;;;;;;;7.20;5.40;;;9.50;99.90;;;9.25;94.92;98615.75;5057009;28;20640;-83
2021/10/13 02:47:24;;;;;;;8.43;5.87;;;9.50;99.90;;;9.24;94.84;98622.69;5048626;28;21322;-84
2021/10/13 02:50:03;;;;;;;11.70;5.50;;;9.50;99.90;;;9.24;95.45;98625.31;5052792;28;20647;-84
2021/10/13 02:52:41;;;;;;;9.47;6.30;;;9.50;99.90;;;9.23;95.03;98628.84;5051582;28;20641;-84
2021/10/13 02:55:15;;;;;;;7.60;6.03;;;9.50;99.90;;;9.25;95.61;98615.75;5037630;28;20624;-83
2021/10/13 02:58:14;;;;;;;10.50;6.70;;;9.60;99.90;;;9.31;95.45;98625.84;5044664;28;20725;-83
2021/10/13 03:00:49;;;;;;;9.40;7.00;;;9.60;99.90;;;9.33;96.28;98629.19;5051842;28;20656;-84
2021/10/13 03:03:23;;;;;;;11.03;7.53;;;9.60;99.90;;;9.37;95.86;98625.47;5054873;28;20711;-83
2021/10/13 03:05:55;;;;;;;13.57;8.90;;;9.60;99.90;;;9.41;96.50;98623.47;5058848;28;21468;-83
2021/10/13 03:08:26;;;;;;;11.10;7.97;;;9.70;99.90;;;9.45;96.71;98621.53;5056402;28;20767;-83
2021/10/13 03:10:58;;;;;;;11.50;7.80;;;9.70;99.90;;;9.45;96.47;98624.13;5057192;28;20640;-83
2021/10/13 03:13:32;;;;;;;11.47;8.67;;;9.70;99.90;;;9.47;96.08;98624.88;5044861;28;20643;-83
2021/10/13 03:16:03;;;;;;;12.00;8.10;;;9.80;99.90;;;9.48;95.98;98626.56;5054695;28;20628;-83
2021/10/13 03:18:39;;;;;;;9.67;7.23;;;9.80;99.90;;;9.47;96.46;98627.47;5057355;28;21207;-83
2021/10/13 03:21:08;;;;;;;10.13;7.60;;;9.80;99.90;;;9.46;96.34;98633.63;5059052;28;20640;-83
2021/10/13 03:23:37;;;;;;;13.60;9.70;;;9.80;99.90;;;9.46;96.24;98631.84;5060578;28;21147;-83
2021/10/13 03:26:06;;;;;;;9.67;7.23;;;9.80;99.90;;;9.51;95.82;98644.63;5058675;28;20695;-83
2021/10/13 03:28:37;;;;;;;9.53;7.10;;;9.80;99.90;;;9.50;95.85;98640.31;5057563;28;20647;-84
2021/10/13 03:31:08;;;;;;;8.97;6.60;;;9.80;99.90;;;9.46;95.15;98631.03;5054906;28;20640;-83
2021/10/13 03:33:37;;;;;;;11.07;7.30;;;9.80;99.90;;;9.43;94.88;98639.00;5055607;28;21179;-84
2021/10/13 03:36:06;;;;;;;6.83;6.00;;;9.80;99.90;;;9.44;94.38;98638.91;5057245;28;21284;-84
2021/10/13 03:38:35;;;;;;;8.40;6.70;;;9.70;99.90;;;9.46;94.75;98651.84;5051355;28;21307;-83
2021/10/13 03:41:04;;;;;;;10.10;6.47;;;9.80;99.90;;;9.49;94.67;98654.28;5054268;28;20210;-84
2021/10/13 03:43:49;;;;;;;8.23;5.70;;;9.80;99.90;;;9.52;94.84;98657.56;5055749;28;20687;-84
2021/10/13 03:46:21;;;;;;;7.73;5.47;;;9.80;99.90;;;9.55;94.91;98653.94;5062393;28;20678;-84
2021/10/13 03:48:52;;;;;;;9.17;6.20;;;9.80;99.90;;;9.56;94.64;98655.59;5062049;28;20681;-84
2021/10/13 03:51:21;;;;;;;8.23;6.27;;;9.90;99.90;;;9.59;94.83;98660.66;5065004;28;20750;-84
2021/10/13 03:53:50;;;;;;;8.93;6.03;;;9.90;99.90;;;9.59;95.29;98664.13;5062500;28;20637;-84
2021/10/13 03:56:19;;;;;;;7.87;5.80;;;9.90;99.90;;;9.60;94.99;98660.56;5055099;28;20629;-84
2021/10/13 03:58:48;;;;;;;10.40;7.17;;;9.90;99.90;;;9.60;95.50;98667.53;5055211;28;20646;-84
2021/10/13 04:01:16;;;;;;;12.40;8.67;;;9.90;99.90;;;9.62;95.00;98674.38;5046702;28;20636;-84
2021/10/13 04:03:47;;;;;;;14.40;9.00;;;9.90;99.90;;;9.63;95.43;98670.81;5054285;28;21037;-84
2021/10/13 04:06:15;;;;;;;12.00;8.60;;;9.90;99.90;;;9.65;95.56;98673.34;5059890;28;21483;-84
2021/10/13 04:08:44;;;;;;;15.83;9.87;;;10.00;99.90;;;9.67;95.26;98680.16;5056034;28;21227;-84
2021/10/13 04:11:15;;;;;;;15.27;9.50;;;9.90;99.90;;;9.68;95.53;98675.78;5061621;28;20757;-84
2021/10/13 04:13:44;;;;;;;12.37;8.90;;;10.00;99.90;;;9.70;95.52;98686.97;5047924;28;20636;-84
2021/10/13 04:16:13;;;;;;;13.90;8.90;;;10.00;99.90;;;9.71;95.62;98684.28;5058884;28;20643;-84
2021/10/13 04:18:42;;;;;;;13.13;9.90;;;10.00;99.90;;;9.74;95.80;98685.84;5064213;28;20632;-84
2021/10/13 04:21:12;;;;;;;12.00;9.70;;;10.00;99.90;;;9.76;95.65;98691.81;5057207;28;21192;-84
2021/10/13 04:23:41;;;;;;;12.83;9.50;;;10.00;99.90;;;9.77;95.51;98685.69;5047101;28;20641;-84
2021/10/13 04:26:10;;;;;;;13.83;9.33;;;10.10;99.90;;;9.79;95.10;98696.84;5043610;28;20714;-84
2021/10/13 04:28:38;;;;;;;18.47;12.43;;;10.10;99.90;;;9.79;95.13;98708.13;5052986;28;20635;-84
2021/10/13 04:31:07;;;;;;;21.50;15.97;;;10.10;99.90;;;9.79;94.91;98704.66;5053684;28;20715;-84
2021/10/13 04:33:35;;;;;;;17.83;13.27;;;10.00;99.90;;;9.80;94.98;98708.94;5046689;28;21179;-84
2021/10/13 04:36:04;;;;;;;20.90;13.33;;;10.10;99.90;;;9.79;94.64;98707.25;5054592;28;20633;-84
2021/10/13 04:38:34;;;;;;;15.97;11.43;;;10.10;99.90;;;9.79;94.58;98704.66;5039994;28;21016;-85
2021/10/13 04:41:06;;;;;;;14.20;10.93;;;10.10;99.90;;;9.79;95.29;98704.66;5056109;28;20731;-84
2021/10/13 04:43:35;;;;;;;15.57;11.37;;;10.10;99.90;;;9.79;95.37;98702.91;5053623;28;20641;-85
2021/10/13 04:46:04;;;;;;;15.80;10.07;;;10.10;99.90;;;9.80;94.91;98699.38;5041731;28;21254;-85
2021/10/13 04:48:32;;;;;;;13.67;9.80;;;10.10;99.90;;;9.79;94.67;98707.25;5053936;28;20712;-84
2021/10/13 04:51:01;;;;;;;13.50;9.60;;;10.10;99.90;;;9.78;94.28;98708.22;5066689;28;20654;-84
2021/10/13 04:53:29;;;;;;;13.30;8.90;;;10.10;99.90;;;9.77;94.33;98715.16;5041818;28;20629;-84
2021/10/13 04:55:59;;;;;;;12.23;8.60;;;10.10;99.90;;;9.77;94.46;98714.31;5061462;28;20627;-86
2021/10/13 04:58:28;;;;;;;12.70;9.20;;;10.10;99.90;;;9.77;94.16;98720.38;5058742;28;21991;-85
2021/10/13 05:00:57;;;;;;;12.53;8.03;;;10.00;99.90;;;9.76;94.69;98717.84;5042248;28;20635;-84
2021/10/13 05:03:25;;;;;;;14.00;9.17;;;10.00;99.90;;;9.76;94.75;98715.25;5057321;28;20631;-87
2021/10/13 05:05:54;;;;;;;15.50;10.47;;;10.00;99.90;;;9.73;94.36;98721.47;5043469;28;20629;-86
2021/10/13 05:08:23;;;;;;;16.90;9.30;;;10.00;99.90;;;9.73;93.16;98718.03;5058150;28;20719;-86
2021/10/13 05:10:51;;;;;;;13.70;8.73;;;10.00;99.90;;;9.70;93.83;98723.41;5062539;28;20632;-86
2021/10/13 05:13:21;;;;;;;12.20;8.90;;;10.00;99.90;;;9.69;93.94;98727.78;5040419;28;20624;-84
2021/10/13 05:15:50;;;;;;;16.57;9.83;;;10.00;99.90;;;9.69;94.31;98727.78;5040264;28;21273;-84
2021/10/13 05:18:19;;;;;;;11.10;7.67;;;9.90;99.90;;;9.68;93.41;98730.47;5053199;28;20636;-85
2021/10/13 05:20:47;;;;;;;11.70;8.10;;;9.90;99.90;;;9.68;93.95;98730.47;5048512;28;20643;-86
2021/10/13 05:23:16;;;;;;;11.60;7.70;;;10.00;99.90;;;9.67;93.81;98729.63;5057763;28;20675;-85
2021/10/13 05:25:48;;;;;;;12.70;8.10;;;10.00;99.90;;;9.69;94.05;98727.78;5061451;28;20671;-85
2021/10/13 05:28:17;;;;;;;12.60;8.30;;;10.00;99.90;;;9.68;93.81;98731.31;5045930;28;20642;-85
2021/10/13 05:30:47;;;;;;;12.03;8.40;;;10.00;99.90;;;9.68;93.72;98733.94;5045219;28;21056;-85
2021/10/13 05:33:15;;;;;;;12.50;8.10;;;10.00;99.90;;;9.68;93.97;98733.94;5055482;28;20629;-85
2021/10/13 05:35:44;;;;;;;12.30;9.00;;;10.00;99.90;;;9.69;94.05;98742.56;5051585;28;20652;-84
2021/10/13 05:38:13;;;;;;;10.67;8.90;;;10.00;99.90;;;9.71;93.68;98738.09;5050213;28;20648;-84
2021/10/13 05:40:41;;;;;;;11.97;8.37;;;10.00;99.90;;;9.69;93.71;98732.97;5053812;28;20629;-84
2021/10/13 05:43:10;;;;;;;12.30;8.33;;;10.00;99.90;;;9.72;93.26;98739.78;5051482;28;20716;-84
2021/10/13 05:45:39;;;;;;;13.20;8.80;;;10.00;99.90;;;9.72;92.74;98738.03;5053939;28;20733;-84
2021/10/13 05:48:09;;;;;;;10.20;7.50;;;10.00;99.90;;;9.66;91.27;98750.53;5057392;28;20663;-84
2021/10/13 05:50:37;;;;;;;9.83;7.83;;;9.90;99.90;;;9.65;92.32;98751.47;5039336;28;20625;-84
2021/10/13 05:53:06;;;;;;;11.00;8.00;;;9.90;99.90;;;9.66;92.01;98759.19;5036559;28;20660;-84
2021/10/13 05:55:44;;;;;;;21.17;13.57;;;9.90;99.90;;;9.63;92.60;98766.34;5071108;28;20617;-84
2021/10/13 05:58:15;;;;;;;27.37;14.23;;;9.90;99.90;;;9.60;92.61;98772.53;5043062;28;20643;-84
2021/10/13 06:00:45;;;;;;;24.83;13.03;;;9.80;99.90;;;9.56;92.84;98772.78;5047060;28;20651;-84
2021/10/13 06:03:17;;;;;;;17.80;9.23;;;9.80;99.90;;;9.57;93.13;98782.28;5056825;28;20636;-86
2021/10/13 06:05:46;;;;;;;11.43;8.20;;;9.80;99.90;;;9.59;93.25;98783.03;5053958;28;20655;-86
2021/10/13 06:08:15;;;;;;;11.17;7.87;;;9.80;99.90;;;9.60;93.75;98790.75;5049567;28;20679;-86
2021/10/13 06:10:44;;;;;;;13.83;8.73;;;9.80;99.90;;;9.64;94.07;98800.09;5040768;28;20620;-86
2021/10/13 06:13:13;;;;;;;10.73;8.03;;;9.90;99.90;;;9.67;94.53;98810.34;5038686;28;20683;-85
2021/10/13 06:15:43;;;;;;;12.27;8.23;;;9.90;99.90;;;9.71;94.45;98805.81;5055260;28;20645;-84
2021/10/13 06:18:12;;;;;;;14.50;9.57;;;10.00;99.90;;;9.73;94.64;98809.19;5054309;28;21036;-83
2021/10/13 06:20:42;;;;;;;16.67;11.27;;;10.00;99.90;;;9.73;94.29;98814.41;5058183;28;20740;-83
2021/10/13 06:23:11;;;;;;;15.20;10.37;;;10.00;99.90;;;9.74;94.25;98822.16;5057458;28;20995;-84
2021/10/13 06:25:40;;;;;;;16.40;10.37;;;10.00;99.90;;;9.73;94.75;98817.00;5055630;28;20746;-83
2021/10/13 06:28:09;;;;;;;19.77;11.20;;;10.00;99.90;;;9.75;94.11;98829.00;5058717;28;20656;-84
2021/10/13 06:30:38;;;;;;;18.37;11.20;;;10.00;99.90;;;9.78;94.31;98833.22;5037248;28;20629;-84
2021/10/13 06:33:07;;;;;;;17.67;10.90;;;10.00;99.90;;;9.80;94.00;98831.38;5053742;28;20628;-84
2021/10/13 06:35:36;;;;;;;17.17;11.10;;;10.00;99.90;;;9.81;94.41;98835.66;5055920;28;20621;-83
2021/10/13 06:38:06;;;;;;;17.97;11.30;;;10.00;99.90;;;9.83;94.48;98849.44;5052337;28;20663;-82
2021/10/13 06:40:35;;;;;;;22.50;12.80;;;10.10;99.90;;;9.84;94.37;98845.94;5052829;28;20616;-83
2021/10/13 06:43:05;;;;;;;20.80;12.40;;;10.10;99.90;;;9.83;94.41;98854.66;5042852;28;20632;-84
2021/10/13 06:45:35;;;;;;;19.63;11.57;;;10.10;99.90;;;9.84;94.37;98852.81;5060769;28;20628;-83
2021/10/13 06:48:05;;;;;;;19.87;12.27;;;10.10;99.90;;;9.87;94.17;98852.63;5058291;28;20702;-83
2021/10/13 06:50:36;;;;;;;20.33;12.73;;;10.10;99.90;;;9.94;94.30;98854.03;5073215;28;20699;-82
2021/10/13 06:53:06;;;;;;;21.97;13.30;;;10.20;99.90;;;10.02;94.67;98854.47;5053228;28;20625;-81
2021/10/13 06:55:38;;;;;;;24.43;13.50;;;10.20;99.90;;;10.09;94.26;98855.81;5058217;28;21208;-83
2021/10/13 06:58:06;;;;;;;24.07;13.07;;;10.30;99.90;;;10.17;93.77;98856.25;5061706;28;21209;-81
2021/10/13 07:00:35;;;;;;;19.43;12.80;;;10.40;99.90;;;10.20;94.05;98863.88;5054032;28;21318;-81
2021/10/13 07:03:04;;;;;;;21.90;12.87;;;10.40;99.90;;;10.23;93.26;98866.31;5050891;28;21009;-82
2021/10/13 07:05:33;;;;;;;19.23;11.97;;;10.40;99.90;;;10.26;94.19;98866.16;5055471;28;20638;-81
2021/10/13 07:08:01;;;;;;;18.40;11.63;;;10.50;99.90;;;10.26;93.68;98870.53;5063737;28;21084;-81
2021/10/13 07:10:32;;;;;;;19.10;10.83;;;10.50;99.90;;;10.27;93.44;98875.69;5048414;28;20716;-81
2021/10/13 07:13:01;;;;;;;20.40;11.33;;;10.50;99.90;;;10.24;92.75;98872.38;5056095;28;20643;-81
2021/10/13 07:15:30;;;;;;;20.23;12.23;;;10.50;99.90;;;10.22;92.99;98869.84;5057087;28;20631;-81
2021/10/13 07:17:58;;;;;;;26.33;17.03;;;10.50;99.90;;;10.23;92.42;98868.94;5055857;28;20698;-81
2021/10/13 07:20:27;;;;;;;18.30;10.73;;;10.50;99.90;;;10.23;92.82;98871.53;5061630;28;20659;-81
2021/10/13 07:22:57;;;;;;;19.43;10.80;;;10.50;99.90;;;10.23;93.42;98871.53;5058991;28;21211;-81
2021/10/13 07:25:27;;;;;;;19.13;11.93;;;10.50;99.90;;;10.23;93.03;98875.94;5060301;28;20630;-81
2021/10/13 07:28:01;;;;;;;21.20;12.70;;;10.50;99.90;;;10.23;93.11;98866.31;5058738;28;20667;-81
2021/10/13 07:30:31;;;;;;;19.50;11.63;;;10.50;99.90;;;10.23;93.24;98868.94;5055113;28;20632;-81
2021/10/13 07:33:00;;;;;;;19.30;11.03;;;10.50;99.90;;;10.26;93.57;98870.53;5057306;28;20689;-81
2021/10/13 07:35:29;;;;;;;22.03;11.80;;;10.50;99.90;;;10.27;93.58;98875.69;5055152;28;20668;-81
2021/10/13 07:37:59;;;;;;;20.30;11.67;;;10.50;99.90;;;10.26;92.77;98873.97;5056623;28;20682;-81
2021/10/13 07:40:28;;;;;;;18.93;12.27;;;10.50;99.90;;;10.24;93.50;98881.06;5057190;28;20718;-81
2021/10/13 07:42:56;;;;;;;19.13;12.63;;;10.50;99.90;;;10.21;92.81;98881.22;5055016;28;20645;-81
2021/10/13 07:45:26;;;;;;;18.73;11.17;;;10.50;99.90;;;10.23;92.89;98886.34;5045440;28;21213;-81
2021/10/13 07:47:55;;;;;;;19.80;12.40;;;10.50;99.90;;;10.24;92.77;98885.41;5057716;28;21005;-81
2021/10/13 07:50:25;;;;;;;19.27;12.17;;;10.50;99.90;;;10.31;92.73;98887.59;5058709;28;21089;-81
2021/10/13 07:52:54;;;;;;;20.17;12.20;;;10.60;99.90;;;10.42;92.77;98893.09;5061678;28;20743;-82
2021/10/13 07:55:22;;;;;;;20.70;12.20;;;10.60;99.90;;;10.51;93.76;98893.41;5062099;28;21285;-82
2021/10/13 07:57:51;;;;;;;22.57;13.40;;;10.70;99.90;;;10.65;93.33;98905.69;5058497;28;21182;-82
2021/10/13 08:00:20;;;;;;;22.03;12.43;;;10.80;99.90;;;10.70;91.33;98901.06;5055057;28;20639;-82
2021/10/13 08:02:50;;;;;;;20.27;12.20;;;10.80;99.90;;;10.81;91.22;98905.59;5054330;28;20636;-85
2021/10/13 08:05:19;;;;;;;20.23;12.87;;;11.00;99.90;;;10.95;90.99;98905.66;5059695;28;20681;-85
2021/10/13 08:07:48;;;;;;;23.00;12.57;;;11.00;99.90;;;11.07;90.35;98912.78;5053323;28;21243;-85
2021/10/13 08:10:17;;;;;;;21.73;11.83;;;11.20;99.90;;;11.20;90.94;98915.53;5065088;28;21010;-83
2021/10/13 08:12:46;;;;;;;15.83;10.97;;;11.30;99.90;;;11.21;90.29;98917.22;5053562;28;20645;-84
2021/10/13 08:15:16;;;;;;;17.47;11.80;;;11.30;99.90;;;11.17;90.47;98921.78;5055710;28;20633;-85
2021/10/13 08:17:44;;;;;;;22.83;12.70;;;11.30;99.90;;;11.15;91.57;98928.84;5056969;28;20635;-84
2021/10/13 08:20:15;;;;;;;18.90;10.47;;;11.30;99.90;;;11.11;91.63;98921.28;5054108;28;20671;-84
2021/10/13 08:22:46;;;;;;;17.60;12.03;;;11.30;99.90;;;11.03;89.90;98928.69;5056429;28;20666;-85
2021/10/13 08:25:15;;;;;;;24.13;13.33;;;11.20;99.90;;;10.99;91.09;98925.44;5051927;28;20719;-85
2021/10/13 08:27:44;;;;;;;21.63;13.67;;;11.20;99.90;;;10.95;90.45;98931.75;5053975;28;21248;-85
2021/10/13 08:30:12;;;;;;;23.20;14.43;;;11.20;99.90;;;10.95;90.60;98931.75;5059892;28;20628;-83
2021/10/13 08:32:41;;;;;;;17.43;10.63;;;11.20;99.90;;;10.99;91.39;98930.66;5059857;28;20748;-83
2021/10/13 08:35:10;;;;;;;21.67;13.27;;;11.20;99.90;;;11.05;90.00;98932.91;5054657;28;20734;-83
2021/10/13 08:37:40;;;;;;;18.80;11.60;;;11.30;99.90;;;11.15;89.87;98933.22;5061630;28;20648;-83
2021/10/13 08:40:11;;;;;;;17.67;11.50;;;11.30;99.90;;;11.23;89.30;98931.00;5060180;28;20645;-83
2021/10/13 08:42:54;;;;;;;16.37;11.20;;;11.40;99.90;;;11.28;88.30;98930.66;5060110;28;20630;-83
2021/10/13 08:45:23;;;;;;;15.20;10.37;;;11.40;99.90;;;11.35;88.57;98931.13;5056571;28;20660;-83
2021/10/13 08:47:52;;;;;;;20.40;11.90;;;11.50;99.90;;;11.36;89.23;98933.66;5053195;28;20727;-83
2021/10/13 08:50:22;;;;;;;20.43;12.17;;;11.50;99.90;;;11.32;90.76;98937.41;5051461;28;21250;-85
2021/10/13 08:53:03;;;;;;;14.33;9.90;;;11.50;99.90;;;11.19;87.31;98930.34;5060893;28;20631;-84
2021/10/13 08:55:32;;;;;;;16.47;10.17;;;11.40;99.90;;;11.09;87.83;98923.97;5058586;28;21248;-84
2021/10/13 08:58:12;;;;;;;14.07;9.80;;;11.30;99.90;;;11.08;89.12;98924.91;5061964;28;20643;-85
2021/10/13 09:00:44;;;;;;;12.40;9.80;;;11.30;99.90;;;11.15;90.04;98930.63;5037656;28;20653;-84
2021/10/13 09:03:30;;;;;;;14.93;9.90;;;11.30;99.90;;;11.41;90.18;98930.78;5061099;28;20650;-85
2021/10/13 09:06:13;;;;;;;15.13;9.43;;;11.50;99.90;;;11.75;90.94;98925.31;5055216;28;20712;-85
2021/10/13 09:08:59;;;;;;;15.43;10.37;;;11.70;99.90;;;12.15;90.02;98922.78;5057733;28;20659;-84
2021/10/13 09:11:40;;;;;;;14.67;9.70;;;12.10;99.90;;;12.20;87.65;98924.19;5050614;28;21094;-84
2021/10/13 09:14:13;;;;;;;14.73;10.33;;;12.20;99.90;;;12.16;86.47;98933.16;5039495;28;20620;-84
2021/10/13 09:16:59;;;;;;;12.30;9.27;;;12.20;99.90;;;12.10;87.08;98940.53;5049678;28;20641;-84
2021/10/13 09:19:30;;;;;;;12.77;9.67;;;12.20;99.70;;;12.05;87.92;98925.13;5058531;28;20624;-85
2021/10/13 09:22:01;;;;;;;13.47;9.23;;;12.20;99.90;;;12.08;86.62;98930.16;5054839;28;20666;-84
2021/10/13 09:24:33;;;;;;;15.73;8.63;;;12.20;99.50;;;12.29;86.75;98939.31;5056448;28;20640;-84
2021/10/13 09:27:21;;;;;;;12.20;9.23;;;12.40;99.90;;;12.52;85.02;98936.13;5055206;28;21201;-84
2021/10/13 09:29:50;;;;;;;15.20;10.60;;;12.50;99.80;;;12.71;84.76;98938.31;5040639;28;20667;-84
2021/10/13 09:32:25;;;;;;;13.60;9.40;;;12.70;99.50;;;12.80;85.28;98942.97;5055837;28;20615;-84
2021/10/13 09:34:57;;;;;;;13.67;8.90;;;12.80;99.10;;;12.85;85.54;98948.81;5054636;28;20703;-84
2021/10/13 09:37:42;;;;;;;19.67;10.17;;;12.90;99.40;;;12.87;83.83;98948.69;5058524;28;20651;-84
2021/10/13 09:40:27;;;;;;;16.83;9.60;;;12.90;98.50;;;12.85;84.87;98940.94;5054422;28;20640;-84
2021/10/13 09:42:59;;;;;;;12.73;9.83;;;12.90;98.60;;;12.77;84.69;98942.34;5055672;28;21159;-84
2021/10/13 09:45:30;;;;;;;19.40;11.47;;;12.90;98.80;;;12.72;84.97;98942.63;5053624;28;20696;-84
2021/10/13 09:48:00;;;;;;;15.83;12.20;;;12.80;98.20;;;12.58;84.26;98946.19;5038893;28;20655;-84
2021/10/13 09:50:50;;;;;;;15.90;12.03;;;12.60;98.20;;;12.52;84.40;98944.78;5058487;28;21222;-84
2021/10/13 09:53:22;;;;;;;13.70;8.37;;;12.60;98.60;;;12.59;85.41;98943.50;5055438;28;21187;-84
2021/10/13 09:55:52;;;;;;;14.70;9.70;;;12.60;98.80;;;12.72;85.08;98942.63;5037364;28;20777;-84
2021/10/13 09:58:30;;;;;;;11.00;8.37;;;12.70;98.70;;;12.84;84.75;98948.91;5053037;28;20634;-84
2021/10/13 10:01:10;;;;;;;13.23;9.20;;;12.90;98.30;;;12.99;83.49;98943.53;5052387;28;20775;-81
2021/10/13 10:03:47;;;;;;;12.20;9.13;;;13.00;98.00;;;13.18;84.98;98938.75;5052189;28;20705;-81
2021/10/13 10:06:19;;;;;;;13.43;9.70;;;13.20;98.90;;;13.28;85.35;98945.91;5056807;28;20616;-82
2021/10/13 10:09:02;;;;;;;13.40;9.27;;;13.30;98.80;;;13.39;84.72;98938.19;5046711;28;20668;-83
2021/10/13 10:11:34;;;;;;;12.97;10.20;;;13.40;98.90;;;13.38;82.70;98936.53;5045595;28;20744;-82
2021/10/13 10:14:06;;;;;;;15.47;10.00;;;13.40;97.80;;;13.24;84.38;98943.59;5051224;28;21251;-83
2021/10/13 10:16:38;;;;;;;13.97;10.83;;;13.40;97.90;;;13.17;84.10;98937.09;5059870;28;21022;-83
2021/10/13 10:19:22;;;;;;;16.97;10.30;;;13.30;98.00;;;13.13;83.57;98940.00;5049021;28;20635;-83
2021/10/13 10:21:54;;;;;;;29.33;20.00;;;13.30;97.50;;;13.14;84.04;98939.06;5053196;28;20625;-82
2021/10/13 10:24:31;;;;;;;12.97;10.13;;;13.30;98.00;;;13.18;83.81;98936.13;5047724;28;20751;-83
2021/10/13 10:27:32;;;;;;;15.37;11.70;;;13.30;97.60;;;13.30;83.89;98935.34;5048580;28;20632;-80
2021/10/13 10:30:15;;;;;;;13.27;10.50;;;13.40;97.80;;;13.67;82.03;98938.88;5056900;28;21314;-81
2021/10/13 10:33:07;;;;;;;13.03;9.40;;;13.60;97.70;;;14.05;82.79;98934.53;5039656;28;20664;-81
2021/10/13 10:35:42;;;;;;;14.70;8.77;;;13.90;98.10;;;14.15;80.66;98940.81;5058610;28;20629;-80
2021/10/13 10:38:12;;;;;;;14.10;8.70;;;14.10;96.10;;;14.25;79.19;98944.47;5055904;28;20635;-81